Latest Weather Observations for Coonawarra

IDS60801

Issued at 10:01 pm CDT Sunday 11 December 2016 (issued every 30 minutes, with the page automatically refreshed every 10 minutes)

About weather observations | Map of weather stations | Latest weather observations for SA | Other Formats
Station Details ID: 026091 Name: COONAWARRA Lat: -37.29 Lon: 140.83 Height: 57.0 m
Data from the previous 72 hours. | See also: Recent months at Coonawarra
Date/Time
CDT
Temp
°C
App
Temp
°C
Dew
Point
°C
Rel
Hum
%
Delta-T
°C
Wind Press
QNH
hPa
Press
MSL
hPa
Rain since
9am
mm
Dir  Spd
km/h
Gust
km/h
Spd
kts
Gust
kts
11/10:00pm 15.2 13.3 10.4 73 2.5 SE 11 15 6 8 1020.6 1020.5 0.0
11/09:30pm 15.7 13.8 10.4 71 2.8 SSE 11 15 6 8 1020.5 1020.4 0.0
11/09:00pm 16.7 14.4 10.3 66 3.4 SSE 13 17 7 9 1020.4 1020.3 0.0
11/08:30pm 17.8 15.1 10.3 61 4.0 SSE 15 20 8 11 1020.4 1020.3 0.0
11/08:00pm 19.5 15.6 9.5 52 5.3 SSE 20 30 11 16 1020.2 1020.1 0.0
11/07:30pm 21.2 17.5 9.4 47 6.3 SSW 19 24 10 13 1020.0 1019.9 0.0
11/07:00pm 23.3 20.5 7.1 35 8.4 SSW 11 17 6 9 1019.8 1019.7 0.0
11/06:30pm 23.4 20.2 5.3 31 9.1 SSW 11 17 6 9 1019.7 1019.6 0.0
11/06:00pm 23.3 20.6 5.7 32 8.9 S 9 15 5 8 1019.7 1019.6 0.0
11/05:30pm 23.8 21.2 5.9 31 9.1 SSE 9 17 5 9 1019.7 1019.6 0.0
11/05:00pm 23.1 20.9 6.2 33 8.6 SSE 7 13 4 7 1020.1 1020.0 0.0
11/04:30pm 23.2 20.6 6.1 33 8.7 SE 9 20 5 11 1020.5 1020.4 0.0
11/04:00pm 23.4 19.9 5.5 31 9.0 WSW 13 20 7 11 1020.6 1020.5 0.0
11/03:30pm 22.4 18.6 5.9 34 8.3 WSW 15 24 8 13 1021.0 1020.9 0.0
11/03:00pm 23.1 21.1 7.3 36 8.2 NE 7 11 4 6 1021.4 1021.3 0.0
11/02:30pm 22.2 20.3 6.5 36 8.0 SW 6 11 3 6 1021.9 1021.8 0.0
11/02:00pm 21.3 19.0 5.9 36 7.7 SSW 7 13 4 7 1022.4 1022.3 0.0
11/01:30pm 21.5 18.5 5.9 36 7.8 SSE 11 15 6 8 1022.7 1022.6 0.0
11/01:00pm 20.1 16.9 5.2 37 7.3 SSE 11 17 6 9 1023.2 1023.2 0.0
11/12:30pm 19.8 17.8 6.4 41 6.7 WNW 6 13 3 7 1023.6 1023.5 0.0
11/12:00pm 19.7 17.9 7.0 43 6.4 WSW 6 13 3 7 1023.9 1023.8 0.0
11/11:30am 18.6 16.4 6.2 44 6.1 SSE 7 15 4 8 1024.2 1024.1 0.0
11/11:00am 17.6 14.6 6.2 47 5.6 SSE 11 20 6 11 1024.5 1024.4 0.0
11/10:30am 17.4 14.0 6.1 47 5.5 SSE 13 20 7 11 1024.7 1024.6 0.0
11/10:00am 16.6 13.0 6.6 51 4.9 SSE 15 20 8 11 1024.9 1024.8 0.0
11/09:30am 15.5 12.2 6.4 54 4.4 SE 13 20 7 11 1025.1 1025.0 0.0
11/09:00am 15.1 12.1 7.9 62 3.6 ESE 13 20 7 11 1025.4 1025.3 0.0
11/08:30am 14.2 12.5 9.7 74 2.3 ESE 9 15 5 8 1025.4 1025.3 0.0
11/08:00am 12.8 11.5 9.9 82 1.5 SE 7 9 4 5 1025.2 1025.1 0.0
11/07:30am 10.7 9.4 9.1 90 0.8 SSE 6 7 3 4 1024.8 1024.7 0.0
11/07:00am 9.1 7.6 8.5 96 0.3 SE 6 7 3 4 1024.5 1024.4 0.0
11/06:30am 6.7 4.4 5.8 94 0.4 SE 7 7 4 4 1024.2 1024.1 0.0
11/06:00am 4.4 1.3 3.7 95 0.3 SSE 9 9 5 5 1023.9 1023.8 0.0
11/05:30am 4.0 1.5 3.8 99 0.1 SSE 6 6 3 3 1023.7 1023.6 0.0
11/05:00am 4.1 1.5 3.4 95 0.3 SSE 6 6 3 3 1023.2 1023.2 0.0
11/04:30am 4.7 2.3 4.2 97 0.2 SSE 6 7 3 4 1022.9 1022.8 0.0
11/04:00am 5.6 3.5 5.6 100 0.0 SSE 6 7 3 4 1022.8 1022.7 0.0
11/03:30am 6.6 4.3 5.9 95 0.3 SSE 7 9 4 5 1022.9 1022.8 0.0
11/03:00am 6.1 3.7 5.2 94 0.4 SSE 7 7 4 4 1023.0 1022.9 0.0
11/02:30am 6.9 4.7 6.0 94 0.4 SSE 7 9 4 5 1023.2 1023.2 0.0
11/02:00am 7.9 5.8 6.8 93 0.5 SSE 7 9 4 5 1023.4 1023.4 0.0
11/01:30am 8.5 6.6 7.4 93 0.5 SSE 7 11 4 6 1023.8 1023.7 0.0
11/01:00am 9.3 6.8 8.0 92 0.6 SSE 11 13 6 7 1024.0 1023.9 0.0
11/12:30am 9.5 7.4 8.3 92 0.6 SSE 9 11 5 6 1024.3 1024.2 0.0
11/12:00am 10.0 7.9 8.4 90 0.8 S 9 13 5 7 1024.5 1024.4 0.0
 
Date/Time
CDT
Temp
°C
App
Temp
°C
Dew
Point
°C
Rel
Hum
%
Delta-T
°C
Wind Press
QNH
hPa
Press
MSL
hPa
Rain since
9am
mm
Dir  Spd
km/h
Gust
km/h
Spd
kts
Gust
kts
10/11:30pm 10.4 8.4 8.6 89 0.9 S 9 13 5 7 1024.6 1024.5 0.0
10/11:00pm 11.2 9.2 8.6 84 1.3 SSE 9 11 5 6 1024.6 1024.5 0.0
10/10:30pm 12.7 10.9 9.3 80 1.7 SSE 9 13 5 7 1024.7 1024.6 0.0
10/10:00pm 13.3 11.4 9.1 76 2.1 SSE 9 13 5 7 1024.6 1024.5 0.0
10/09:30pm 13.7 11.2 9.6 76 2.1 S 13 19 7 10 1024.4 1024.3 0.0
10/09:00pm 14.0 11.0 9.1 72 2.5 S 15 22 8 12 1024.2 1024.1 0.0
10/08:30pm 14.6 11.9 9.1 69 2.8 S 13 17 7 9 1024.1 1024.0 0.0
10/08:00pm 14.8 12.1 8.9 68 3.0 S 13 17 7 9 1023.9 1023.8 0.0
10/07:30pm 15.0 11.5 8.9 67 3.1 SSE 17 22 9 12 1023.7 1023.6 0.0
10/07:00pm 15.5 12.1 9.3 66 3.2 S 17 22 9 12 1023.7 1023.6 0.0
10/06:30pm 16.4 13.3 8.8 60 3.9 S 15 22 8 12 1023.4 1023.4 0.0
10/06:00pm 16.3 12.5 8.9 61 3.8 S 19 24 10 13 1023.3 1023.3 0.0
10/05:30pm 16.7 12.8 8.7 59 4.1 SSW 19 26 10 14 1023.2 1023.2 0.0
10/05:00pm 16.8 12.9 8.6 58 4.2 S 19 28 10 15 1023.3 1023.3 0.0
10/04:30pm 17.0 13.1 8.6 57 4.3 SSW 19 24 10 13 1023.4 1023.4 0.0
10/04:00pm 17.1 13.9 8.3 56 4.5 SSW 15 30 8 16 1023.4 1023.4 0.0
10/03:30pm 17.1 13.5 8.5 57 4.4 SW 17 24 9 13 1023.7 1023.6 0.0
10/03:00pm 16.9 12.8 8.0 55 4.5 SSW 19 28 10 15 1024.0 1023.9 0.0
10/02:30pm 17.5 13.8 7.8 53 4.9 SSW 17 26 9 14 1024.2 1024.1 0.0
10/02:00pm 17.7 14.3 7.8 52 5.0 SSW 15 26 8 14 1024.3 1024.2 0.0
10/01:30pm 17.6 14.6 7.9 53 4.9 SSW 13 20 7 11 1024.6 1024.5 0.0
10/01:00pm 16.4 13.8 7.6 56 4.4 SW 11 19 6 10 1024.8 1024.7 0.0
10/12:30pm 15.7 12.6 7.2 57 4.2 SSW 13 20 7 11 1025.1 1025.0 0.0
10/12:00pm 15.8 12.8 7.6 58 4.1 SW 13 20 7 11 1025.0 1024.9 0.0
10/11:30am 15.3 12.2 7.2 58 4.0 SSW 13 17 7 9 1025.2 1025.1 0.0
10/11:00am 14.6 11.9 7.2 61 3.6 SSW 11 19 6 10 1025.4 1025.3 0.0
10/10:30am 14.4 12.0 6.8 60 3.7 SSW 9 15 5 8 1025.5 1025.4 0.0
10/10:00am 14.0 12.0 6.3 60 3.7 SSW 6 11 3 6 1025.5 1025.4 0.0
10/09:30am 13.6 11.5 6.7 63 3.3 W 7 13 4 7 1025.4 1025.3 0.0
10/09:00am 13.2 10.7 6.7 64 3.1 WSW 9 13 5 7 1025.4 1025.3 0.2
10/08:30am 12.9 10.9 6.9 67 2.9 NW 7 9 4 5 1025.1 1025.0 0.2
10/08:00am 12.6 11.2 7.4 70 2.5 WSW 4 9 2 5 1024.8 1024.7 0.2
10/07:30am 12.2 10.1 6.5 68 2.7 SW 7 11 4 6 1024.8 1024.7 0.2
10/07:00am 11.7 10.3 8.7 82 1.5 SW 6 7 3 4 1024.5 1024.4 0.2
10/06:30am 11.3 10.7 8.9 85 1.2 SSW 2 6 1 3 1024.2 1024.1 0.2
10/06:00am 11.2 11.0 9.0 86 1.1 CALM 0 0 0 0 1023.7 1023.6 0.2
10/05:30am 11.1 10.4 8.7 85 1.2 S 2 6 1 3 1023.4 1023.4 0.2
10/05:00am 11.2 9.6 8.8 85 1.2 S 7 11 4 6 1023.2 1023.2 0.2
10/04:30am 11.5 11.4 9.3 86 1.1 CALM 0 6 0 3 1023.0 1022.9 0.2
10/04:00am 11.5 11.5 9.7 89 0.9 CALM 0 0 0 0 1022.9 1022.8 0.2
10/03:30am 11.5 11.4 9.3 86 1.1 CALM 0 0 0 0 1023.0 1022.9 0.2
10/03:00am 11.5 11.3 9.1 85 1.2 CALM 0 0 0 0 1023.1 1023.0 0.2
10/02:30am 11.5 10.1 8.9 84 1.3 SSW 6 6 3 3 1023.2 1023.2 0.2
10/02:00am 11.6 10.9 8.6 82 1.5 SSW 2 6 1 3 1023.3 1023.3 0.2
10/01:30am 11.5 9.9 7.8 78 1.8 S 6 7 3 4 1023.4 1023.4 0.2
10/01:00am 11.5 9.5 7.1 74 2.1 S 7 9 4 5 1023.8 1023.7 0.2
10/12:30am 11.2 9.4 7.2 76 1.9 S 6 7 3 4 1023.8 1023.7 0.2
10/12:00am 11.5 9.5 6.9 73 2.2 SSW 7 9 4 5 1023.9 1023.8 0.2
 
Date/Time
CDT
Temp
°C
App
Temp
°C
Dew
Point
°C
Rel
Hum
%
Delta-T
°C
Wind Press
QNH
hPa
Press
MSL
hPa
Rain since
9am
mm
Dir  Spd
km/h
Gust
km/h
Spd
kts
Gust
kts
09/11:30pm 12.1 9.8 5.9 66 2.9 S 7 9 4 5 1024.0 1023.9 0.2
09/11:00pm 12.5 8.9 4.9 60 3.5 S 13 19 7 10 1024.0 1023.9 0.2
09/10:30pm 12.6 9.4 5.2 60 3.4 SSW 11 15 6 8 1024.1 1024.0 0.2
09/10:00pm 12.4 9.8 6.3 66 2.9 SSW 9 13 5 7 1023.9 1023.8 0.2
09/09:30pm 12.6 10.1 6.7 67 2.8 S 9 13 5 7 1023.8 1023.7 0.2
09/09:00pm 12.8 9.5 6.5 65 3.0 S 13 19 7 10 1023.6 1023.5 0.2
09/08:30pm 13.2 10.4 7.0 66 3.0 S 11 15 6 8 1023.3 1023.3 0.2
09/08:00pm 13.4 9.8 5.0 57 3.9 SSW 13 19 7 10 1023.1 1023.0 0.2
09/07:30pm 14.2 10.1 4.4 51 4.5 S 15 20 8 11 1022.8 1022.7 0.2
09/07:00pm 14.2 9.8 5.0 54 4.3 SSW 17 24 9 13 1022.7 1022.6 0.2
09/06:30pm 14.3 9.5 5.6 56 4.1 SSW 20 28 11 15 1022.5 1022.4 0.2
09/06:00pm 14.9 9.6 4.8 51 4.7 SSW 22 28 12 15 1022.0 1021.9 0.2
09/05:30pm 15.5 10.5 4.6 48 5.1 S 20 30 11 16 1021.7 1021.6 0.2
09/05:00pm 15.6 10.8 4.7 48 5.1 SSW 19 28 10 15 1021.7 1021.6 0.2
09/04:30pm 15.7 10.8 4.9 48 5.1 SSW 20 30 11 16 1021.8 1021.7 0.2
09/04:00pm 15.7 10.0 5.1 49 5.0 SSW 24 33 13 18 1021.8 1021.7 0.2
09/03:30pm 15.8 10.9 5.0 48 5.1 SSW 20 30 11 16 1021.7 1021.6 0.2
09/03:00pm 16.7 11.6 4.3 43 5.8 S 20 30 11 16 1021.7 1021.6 0.2
09/02:30pm 15.8 10.8 4.4 46 5.3 SSW 20 30 11 16 1021.7 1021.6 0.2
09/02:00pm 16.0 11.0 4.7 47 5.3 SSW 20 30 11 16 1021.6 1021.5 0.2
09/01:30pm 16.3 11.1 3.7 43 5.8 SSW 20 35 11 19 1021.6 1021.5 0.2
09/01:00pm 16.1 10.7 2.5 40 6.1 SSW 20 32 11 17 1021.5 1021.4 0.2
09/12:30pm 15.8 10.7 3.0 42 5.8 SSW 19 28 10 15 1021.5 1021.4 0.2
09/12:00pm 16.5 11.4 2.8 40 6.2 SSW 19 28 10 15 1021.5 1021.4 0.0
09/11:30am 15.3 9.9 2.2 41 5.8 SW 20 30 11 16 1021.5 1021.4 0.0
09/11:00am 14.8 9.6 3.6 47 5.1 SSW 20 28 11 15 1021.4 1021.3 0.0
09/10:30am 14.6 9.4 3.6 47 5.0 SSW 20 33 11 18 1021.1 1021.0 0.0
09/10:00am 14.5 7.6 2.3 43 5.4 S 28 37 15 20 1020.7 1020.6 0.0
09/09:30am 14.6 8.5 2.7 44 5.3 SSW 24 33 13 18 1020.5 1020.4 0.0
09/09:00am 13.7 8.4 4.9 55 4.1 SSW 22 30 12 16 1020.3 1020.2 1.2
09/08:30am 12.9 8.3 5.6 61 3.4 SSW 19 32 10 17 1019.8 1019.7 1.2
09/08:00am 12.3 8.2 6.2 66 2.9 SW 17 24 9 13 1019.3 1019.2 1.2
09/07:30am 11.0 8.6 7.2 77 1.8 WSW 9 13 5 7 1018.9 1018.8 1.2
09/07:00am 9.7 7.8 7.4 85 1.1 WSW 7 11 4 6 1018.3 1018.2 1.2
09/06:30am 8.7 6.9 7.0 89 0.8 SSW 6 7 3 4 1017.9 1017.8 1.2
09/06:00am 7.5 5.5 6.2 91 0.6 W 6 7 3 4 1017.3 1017.2 1.2
09/05:30am 7.3 5.0 5.7 89 0.7 WSW 7 7 4 4 1016.8 1016.7 1.2
09/05:00am 8.3 5.7 6.1 86 1.0 SW 9 13 5 7 1016.2 1016.1 1.2
09/04:30am 8.1 5.2 6.6 90 0.7 SW 11 15 6 8 1015.7 1015.6 1.2
09/04:00am 8.1 5.7 6.8 91 0.6 WSW 9 11 5 6 1015.5 1015.4 1.2
09/03:30am 9.2 6.6 7.7 90 0.7 SW 11 15 6 8 1015.1 1015.0 1.2
09/03:00am 9.8 6.9 8.1 89 0.8 WSW 13 15 7 8 1014.9 1014.8 1.2
09/02:30am 9.7 7.2 8.0 89 0.8 WSW 11 17 6 9 1014.7 1014.6 1.2
09/02:00am 9.7 6.4 8.0 89 0.8 SW 15 22 8 12 1014.7 1014.6 1.2
09/01:30am 8.4 6.0 7.1 91 0.6 WSW 9 13 5 7 1014.6 1014.5 1.2
09/01:00am 9.2 7.3 7.7 90 0.7 SW 7 11 4 6 1014.5 1014.4 1.2
09/12:30am 8.9 6.6 7.6 91 0.6 SW 9 11 5 6 1014.5 1014.4 1.2
09/12:00am 9.4 6.9 8.2 92 0.6 WSW 11 15 6 8 1014.3 1014.2 1.2
 
Date/Time
CDT
Temp
°C
App
Temp
°C
Dew
Point
°C
Rel
Hum
%
Delta-T
°C
Wind Press
QNH
hPa
Press
MSL
hPa
Rain since
9am
mm
Dir  Spd
km/h
Gust
km/h
Spd
kts
Gust
kts
08/11:30pm 9.9 6.7 8.3 90 0.8 SW 15 20 8 11 1014.1 1014.0 1.2
08/11:00pm 9.7 6.8 8.0 89 0.8 WSW 13 20 7 11 1013.8 1013.7 1.0
08/10:30pm 10.2 6.4 7.5 83 1.3 WSW 17 20 9 11 1013.7 1013.6 1.0

Other Formats:

Comma delimited format used in spreadsheet applications
http://www.bom.gov.au/fwo/IDS60801/IDS60801.94817.axf

JavaScript Object Notation format (JSON) in row-major order
http://www.bom.gov.au/fwo/IDS60801/IDS60801.94817.json